createdAt,value
2023-01-19T00:00:46.896Z,-1.25
2023-01-19T00:03:13.402Z,-1.24
2023-01-19T00:05:40.124Z,-1.22
2023-01-19T00:08:06.619Z,-1.18
2023-01-19T00:10:33.136Z,-1.12
2023-01-19T00:12:59.979Z,-1.08
2023-01-19T00:15:26.635Z,-1.04
2023-01-19T00:17:54.484Z,-1.01
2023-01-19T00:20:21.028Z,-0.92
2023-01-19T00:22:47.596Z,-0.90
2023-01-19T00:25:14.162Z,-0.88
2023-01-19T00:27:40.675Z,-0.79
2023-01-19T00:30:08.558Z,-0.77
2023-01-19T00:32:35.063Z,-0.76
2023-01-19T00:35:03.037Z,-0.77
2023-01-19T00:37:29.540Z,-0.75
2023-01-19T00:39:56.060Z,-0.68
2023-01-19T00:42:22.597Z,-0.62
2023-01-19T00:44:49.100Z,-0.63
2023-01-19T00:47:15.662Z,-0.61
2023-01-19T00:49:43.161Z,-0.67
2023-01-19T00:52:11.026Z,-0.63
2023-01-19T00:54:37.566Z,-0.51
2023-01-19T00:57:04.126Z,-0.49
2023-01-19T00:59:30.693Z,-0.47
2023-01-19T01:01:57.445Z,-0.41
2023-01-19T01:04:24.145Z,-0.45
2023-01-19T01:06:50.663Z,-0.31
2023-01-19T01:09:18.559Z,-0.31
2023-01-19T01:11:45.135Z,-0.24
2023-01-19T01:14:12.752Z,-0.24
2023-01-19T01:16:39.460Z,-0.22
2023-01-19T01:19:06.066Z,-0.24
2023-01-19T01:21:32.655Z,-0.21
2023-01-19T01:23:59.184Z,-0.18
2023-01-19T01:26:27.835Z,-0.12
2023-01-19T01:28:54.385Z,-0.18
2023-01-19T01:31:21.084Z,-0.29
2023-01-19T01:33:47.696Z,-0.33
2023-01-19T01:36:14.428Z,-0.44
2023-01-19T01:38:41.551Z,-0.35
2023-01-19T01:41:08.873Z,-0.35
2023-01-19T01:43:48.621Z,-0.37
2023-01-19T01:46:16.535Z,-0.42
2023-01-19T01:48:49.182Z,-0.41
2023-01-19T01:51:21.487Z,-0.48
2023-01-19T01:53:51.646Z,-0.43
2023-01-19T01:56:25.109Z,-0.47
2023-01-19T01:58:53.529Z,-0.42
2023-01-19T02:01:20.226Z,-0.58
2023-01-19T02:03:46.917Z,-0.50
2023-01-19T02:06:14.606Z,-0.53
2023-01-19T02:08:46.487Z,-0.56
2023-01-19T02:11:13.455Z,-0.56
2023-01-19T02:13:42.470Z,-0.52
2023-01-19T02:16:11.755Z,-0.54
2023-01-19T02:18:38.819Z,-0.54
2023-01-19T02:21:12.205Z,-0.60
2023-01-19T02:23:43.335Z,-0.66
2023-01-19T02:26:13.234Z,-0.74
2023-01-19T02:28:43.682Z,-0.91
2023-01-19T02:31:10.632Z,-0.82
2023-01-19T02:33:37.712Z,-0.87
2023-01-19T02:36:06.584Z,-0.80
2023-01-19T02:38:33.745Z,-0.78
2023-01-19T02:41:05.392Z,-0.70
2023-01-19T02:43:33.092Z,-0.66
2023-01-19T02:45:59.764Z,-0.76
2023-01-19T02:48:26.501Z,-0.65
2023-01-19T02:50:57.154Z,-0.62
2023-01-19T02:53:45.411Z,-0.64
2023-01-19T02:56:34.985Z,-0.66
2023-01-19T02:59:06.737Z,-0.54
2023-01-19T03:01:47.078Z,-0.62
2023-01-19T03:04:24.641Z,-0.38
2023-01-19T03:06:58.162Z,-0.52
2023-01-19T03:09:32.339Z,-0.53
2023-01-19T03:12:07.597Z,-0.39
2023-01-19T03:14:40.468Z,-0.30
2023-01-19T03:17:10.459Z,-0.48
2023-01-19T03:19:40.830Z,-0.34
2023-01-19T03:22:12.534Z,-0.27
2023-01-19T03:24:42.653Z,-0.26
2023-01-19T03:27:16.433Z,-0.22
2023-01-19T03:29:48.271Z,-0.22
2023-01-19T03:32:18.028Z,-0.17
2023-01-19T03:34:47.901Z,-0.23
2023-01-19T03:37:16.663Z,-0.25
2023-01-19T03:39:43.475Z,-0.26
2023-01-19T03:42:15.188Z,-0.33
2023-01-19T03:44:44.274Z,-0.37
2023-01-19T03:47:13.277Z,-0.39
2023-01-19T03:49:43.033Z,-0.48
2023-01-19T03:52:10.071Z,-0.47
2023-01-19T03:54:36.872Z,-0.49
2023-01-19T03:57:03.766Z,-0.52
2023-01-19T03:59:31.704Z,-0.57
2023-01-19T04:01:58.327Z,-0.60
2023-01-19T04:04:25.225Z,-0.62
2023-01-19T04:06:51.805Z,-0.61
2023-01-19T04:09:20.002Z,-0.56
2023-01-19T04:11:46.847Z,-0.58
2023-01-19T04:14:13.387Z,-0.55
2023-01-19T04:16:41.261Z,-0.53
2023-01-19T04:19:07.768Z,-0.48
2023-01-19T04:21:34.357Z,-0.48
2023-01-19T04:24:00.891Z,-0.49
2023-01-19T04:26:27.411Z,-0.45
2023-01-19T04:28:54.143Z,-0.42
2023-01-19T04:31:20.760Z,-0.29
2023-01-19T04:33:48.963Z,-0.34
2023-01-19T04:36:15.572Z,-0.31
2023-01-19T04:38:42.181Z,-0.29
2023-01-19T04:41:08.783Z,-0.32
2023-01-19T04:43:35.372Z,-0.22
2023-01-19T04:46:01.954Z,-0.17
2023-01-19T04:48:28.466Z,-0.15
2023-01-19T04:50:56.357Z,-0.15
2023-01-19T04:53:22.895Z,-0.25
2023-01-19T04:55:53.061Z,-0.11
2023-01-19T04:58:19.656Z,-0.09
2023-01-19T05:00:46.209Z,-0.04
2023-01-19T05:03:12.756Z,-0.02
2023-01-19T05:05:39.438Z,0.07
2023-01-19T05:08:07.603Z,0.08
2023-01-19T05:10:34.103Z,0.00
2023-01-19T05:13:01.000Z,0.02
2023-01-19T05:15:27.892Z,0.14
2023-01-19T05:17:54.529Z,0.11
2023-01-19T05:20:21.073Z,0.16
2023-01-19T05:22:51.095Z,0.17
2023-01-19T05:25:19.469Z,0.20
2023-01-19T05:27:46.111Z,0.25
2023-01-19T05:30:13.440Z,0.30
2023-01-19T05:32:40.133Z,0.32
2023-01-19T05:35:08.139Z,0.33
2023-01-19T05:37:34.687Z,0.22
2023-01-19T05:40:01.222Z,0.37
2023-01-19T05:42:30.837Z,0.54
2023-01-19T05:44:58.657Z,0.59
2023-01-19T05:47:25.276Z,0.67
2023-01-19T05:49:51.904Z,0.77
2023-01-19T05:52:18.479Z,0.82
2023-01-19T05:54:45.064Z,0.93
2023-01-19T05:57:11.606Z,1.00
2023-01-19T05:59:39.642Z,1.10
2023-01-19T06:02:06.467Z,1.15
2023-01-19T06:04:33.035Z,1.16
2023-01-19T06:06:59.624Z,1.15
2023-01-19T06:09:26.232Z,1.19
2023-01-19T06:11:52.806Z,1.23
2023-01-19T06:14:21.802Z,1.19
2023-01-19T06:16:49.733Z,1.21
2023-01-19T06:19:16.325Z,1.21
2023-01-19T06:21:42.863Z,1.25
2023-01-19T06:24:09.570Z,1.23
2023-01-19T06:26:36.109Z,1.28
2023-01-19T06:29:02.902Z,1.19
2023-01-19T06:31:29.415Z,1.32
2023-01-19T06:33:57.432Z,1.26
2023-01-19T06:36:24.021Z,1.28
2023-01-19T06:38:50.704Z,1.19
2023-01-19T06:41:17.315Z,1.05
2023-01-19T06:43:43.908Z,1.17
2023-01-19T06:46:10.502Z,1.01
2023-01-19T06:48:37.170Z,1.17
2023-01-19T06:51:05.398Z,1.03
2023-01-19T06:53:32.135Z,1.11
2023-01-19T06:55:59.593Z,0.99
2023-01-19T06:58:27.215Z,1.01
2023-01-19T07:00:53.903Z,1.01
2023-01-19T07:03:22.478Z,0.98
2023-01-19T07:05:51.627Z,1.02
2023-01-19T07:08:19.653Z,0.93
2023-01-19T07:11:24.658Z,0.72
2023-01-19T07:13:33.276Z,0.73
2023-01-19T07:16:03.335Z,0.96
2023-01-19T07:18:30.070Z,0.85
2023-01-19T07:20:57.322Z,0.98
2023-01-19T07:23:25.639Z,0.88
2023-01-19T07:25:52.158Z,0.84
2023-01-19T07:28:18.727Z,0.93
2023-01-19T07:30:45.554Z,0.92
2023-01-19T07:33:12.599Z,0.86
2023-01-19T07:35:39.111Z,0.96
2023-01-19T07:38:05.825Z,0.92
2023-01-19T07:40:33.761Z,1.00
2023-01-19T07:43:00.650Z,0.94
2023-01-19T07:45:28.019Z,0.97
2023-01-19T07:47:54.657Z,0.95
2023-01-19T07:50:21.481Z,0.93
2023-01-19T07:52:48.155Z,0.97
2023-01-19T07:55:14.712Z,0.97
2023-01-19T07:57:42.655Z,0.99
2023-01-19T08:00:10.522Z,0.98
2023-01-19T08:02:40.152Z,0.79
2023-01-19T08:05:07.116Z,1.03
2023-01-19T08:07:34.228Z,1.04
2023-01-19T08:10:00.860Z,1.03
2023-01-19T08:12:27.437Z,1.07
2023-01-19T08:14:55.325Z,1.10
2023-01-19T08:17:21.925Z,1.10
2023-01-19T08:19:48.440Z,1.10
2023-01-19T08:22:15.070Z,1.08
2023-01-19T08:24:41.702Z,1.00
2023-01-19T08:27:08.311Z,1.02
2023-01-19T08:29:35.221Z,0.75
2023-01-19T08:32:03.313Z,0.91
2023-01-19T08:34:29.890Z,1.01
2023-01-19T08:36:56.512Z,1.04
2023-01-19T08:39:22.995Z,1.11
2023-01-19T08:41:49.606Z,1.16
2023-01-19T08:44:16.607Z,1.18
2023-01-19T08:46:43.580Z,1.21
2023-01-19T08:49:11.757Z,1.29
2023-01-19T08:51:38.430Z,1.26
2023-01-19T08:54:05.387Z,1.18
2023-01-19T08:56:31.907Z,1.30
2023-01-19T08:59:08.693Z,1.32
2023-01-19T09:01:37.169Z,1.35
2023-01-19T09:04:04.112Z,1.40
2023-01-19T09:06:32.047Z,1.42
2023-01-19T09:08:58.561Z,1.44
2023-01-19T09:11:25.261Z,1.51
2023-01-19T09:13:51.755Z,1.46
2023-01-19T09:16:18.497Z,1.53
2023-01-19T09:18:45.084Z,1.50
2023-01-19T09:21:12.487Z,1.53
2023-01-19T09:23:40.420Z,1.57
2023-01-19T09:26:07.221Z,1.66
2023-01-19T09:28:33.860Z,1.55
2023-01-19T09:31:04.858Z,1.62
2023-01-19T09:33:31.538Z,1.64
2023-01-19T09:35:58.123Z,1.75
2023-01-19T09:38:24.861Z,1.68
2023-01-19T09:40:55.153Z,1.66
2023-01-19T09:43:37.677Z,1.65
2023-01-19T09:46:10.764Z,1.69
2023-01-19T09:48:45.718Z,1.61
2023-01-19T09:51:15.939Z,1.72
2023-01-19T09:53:50.751Z,1.76
2023-01-19T09:56:20.311Z,1.71
2023-01-19T09:58:48.149Z,1.85
2023-01-19T10:01:28.445Z,1.85
2023-01-19T10:04:12.366Z,1.97
2023-01-19T10:06:39.096Z,1.99
2023-01-19T10:09:14.702Z,1.98
2023-01-19T10:11:53.565Z,2.03
2023-01-19T10:14:30.419Z,2.09
2023-01-19T10:17:07.233Z,2.14
2023-01-19T10:19:38.247Z,2.21
2023-01-19T10:22:20.044Z,2.26
2023-01-19T10:24:48.522Z,2.15
2023-01-19T10:27:19.007Z,2.26
2023-01-19T10:29:47.423Z,2.23
2023-01-19T10:32:16.330Z,2.19
2023-01-19T10:34:43.206Z,2.14
2023-01-19T10:37:22.516Z,2.16
2023-01-19T10:39:54.108Z,2.09
2023-01-19T10:42:22.276Z,2.09
2023-01-19T10:44:49.620Z,2.00
2023-01-19T10:47:18.588Z,2.11
2023-01-19T10:49:46.344Z,2.09
2023-01-19T10:52:22.685Z,2.13
2023-01-19T10:54:49.560Z,2.10
2023-01-19T10:57:26.403Z,1.96
2023-01-19T10:59:53.219Z,2.02
2023-01-19T11:02:22.513Z,1.98
2023-01-19T11:04:51.773Z,1.92
2023-01-19T11:07:21.294Z,1.94
2023-01-19T11:09:48.785Z,1.95
2023-01-19T11:12:20.598Z,1.98
2023-01-19T11:14:50.415Z,1.99
2023-01-19T11:17:20.557Z,2.01
2023-01-19T11:19:55.685Z,2.01
2023-01-19T11:22:26.839Z,2.02
2023-01-19T11:24:58.901Z,2.02
2023-01-19T11:27:26.407Z,2.00
2023-01-19T11:30:01.642Z,2.01
2023-01-19T11:32:28.252Z,1.87
2023-01-19T11:34:54.774Z,1.90
2023-01-19T11:37:30.088Z,1.94
2023-01-19T11:39:58.833Z,1.89
2023-01-19T11:42:27.899Z,2.00
2023-01-19T11:45:01.774Z,2.00
2023-01-19T11:47:33.124Z,1.96
2023-01-19T11:50:05.839Z,1.98
2023-01-19T11:52:35.768Z,1.97
2023-01-19T11:55:06.976Z,1.98
2023-01-19T11:57:33.791Z,2.02
2023-01-19T12:00:17.384Z,2.02
2023-01-19T12:02:46.772Z,2.12
2023-01-19T12:05:18.111Z,2.17
2023-01-19T12:07:46.515Z,2.22
2023-01-19T12:10:23.855Z,2.22
2023-01-19T12:12:52.029Z,2.19
2023-01-19T12:15:30.258Z,2.27
2023-01-19T12:18:00.762Z,2.34
2023-01-19T12:20:31.498Z,2.47
2023-01-19T12:23:07.115Z,2.55
2023-01-19T12:25:47.411Z,2.61
2023-01-19T12:28:16.750Z,2.58
2023-01-19T12:30:44.765Z,2.61
2023-01-19T12:33:22.660Z,2.75
2023-01-19T12:35:57.693Z,2.77
2023-01-19T12:38:46.579Z,2.80
2023-01-19T12:41:26.566Z,2.86
2023-01-19T12:44:29.578Z,2.94
2023-01-19T12:46:59.432Z,3.00
2023-01-19T12:49:29.436Z,3.04
2023-01-19T12:52:23.763Z,3.14
2023-01-19T12:54:56.290Z,3.18
2023-01-19T12:57:27.098Z,3.02
2023-01-19T12:59:58.950Z,3.16
2023-01-19T13:02:51.970Z,3.20
2023-01-19T13:05:48.115Z,3.29
2023-01-19T13:08:22.705Z,3.21
2023-01-19T13:11:20.444Z,3.17
2023-01-19T13:14:26.349Z,3.14
2023-01-19T13:17:00.202Z,3.20
2023-01-19T13:19:47.536Z,3.22
2023-01-19T13:22:49.247Z,3.16
2023-01-19T13:25:27.669Z,3.18
2023-01-19T13:27:55.046Z,3.05
2023-01-19T13:30:26.438Z,3.17
2023-01-19T13:32:55.588Z,2.92
2023-01-19T13:35:24.341Z,3.15
2023-01-19T13:37:51.780Z,3.08
2023-01-19T13:40:22.523Z,3.16
2023-01-19T13:42:51.302Z,3.26
2023-01-19T13:45:31.443Z,3.31
2023-01-19T13:48:00.120Z,3.29
2023-01-19T13:50:29.811Z,3.21
2023-01-19T13:52:56.840Z,3.10
2023-01-19T13:55:24.355Z,3.20
2023-01-19T13:57:52.261Z,3.22
2023-01-19T14:00:21.027Z,3.25
2023-01-19T14:02:54.844Z,3.28
2023-01-19T14:05:23.927Z,3.27
2023-01-19T14:08:04.872Z,3.31
2023-01-19T14:10:31.694Z,3.27
2023-01-19T14:12:59.834Z,3.31
2023-01-19T14:15:26.740Z,3.34
2023-01-19T14:18:09.452Z,3.32
2023-01-19T14:20:36.118Z,3.38
2023-01-19T14:23:04.684Z,3.38
2023-01-19T14:25:32.915Z,3.36
2023-01-19T14:28:28.319Z,3.32
2023-01-19T14:30:56.762Z,3.33
2023-01-19T14:33:36.690Z,3.34
2023-01-19T14:36:28.723Z,3.33
2023-01-19T14:38:59.901Z,3.03
2023-01-19T14:41:32.764Z,3.33
2023-01-19T14:44:00.110Z,3.29
2023-01-19T14:46:26.808Z,3.30
2023-01-19T14:48:59.107Z,3.17
2023-01-19T14:51:27.401Z,3.23
2023-01-19T14:53:58.623Z,3.27
2023-01-19T14:56:28.841Z,3.19
2023-01-19T14:58:56.128Z,3.24
2023-01-19T15:01:22.941Z,3.24
2023-01-19T15:03:49.633Z,3.24
2023-01-19T15:06:18.937Z,3.28
2023-01-19T15:08:46.600Z,3.22
2023-01-19T15:11:23.568Z,3.16
2023-01-19T15:13:51.625Z,3.10
2023-01-19T15:16:18.862Z,3.09
2023-01-19T15:18:45.697Z,3.02
2023-01-19T15:21:14.531Z,3.00
2023-01-19T15:23:41.551Z,2.92
2023-01-19T15:26:13.881Z,2.87
2023-01-19T15:28:40.462Z,2.84
2023-01-19T15:31:13.451Z,2.83
2023-01-19T15:33:40.041Z,2.79
2023-01-19T15:36:12.245Z,2.69
2023-01-19T15:38:39.023Z,2.68
2023-01-19T15:41:12.058Z,2.54
2023-01-19T15:43:38.612Z,2.58
2023-01-19T15:46:11.146Z,2.56
2023-01-19T15:48:37.681Z,2.55
2023-01-19T15:51:04.299Z,2.38
2023-01-19T15:53:30.831Z,2.48
2023-01-19T15:55:57.447Z,2.48
2023-01-19T15:58:24.685Z,2.38
2023-01-19T16:00:55.405Z,2.43
2023-01-19T16:03:23.702Z,2.42
2023-01-19T16:05:50.240Z,2.29
2023-01-19T16:08:17.123Z,2.43
2023-01-19T16:10:43.827Z,2.41
2023-01-19T16:13:11.242Z,2.32
2023-01-19T16:15:39.022Z,2.25
2023-01-19T16:18:06.110Z,2.19
2023-01-19T16:20:34.048Z,2.16
2023-01-19T16:23:14.416Z,2.12
2023-01-19T16:25:41.975Z,2.11
2023-01-19T16:28:08.607Z,2.10
2023-01-19T16:30:35.292Z,2.07
2023-01-19T16:33:02.131Z,2.06
2023-01-19T16:35:28.732Z,2.09
2023-01-19T16:37:56.568Z,2.05
2023-01-19T16:40:23.169Z,2.01
2023-01-19T16:42:49.691Z,1.98
2023-01-19T16:45:16.455Z,1.95
2023-01-19T16:47:42.997Z,1.94
2023-01-19T16:50:11.161Z,1.90
2023-01-19T16:52:38.188Z,1.88
2023-01-19T16:55:07.742Z,1.83
2023-01-19T16:57:34.244Z,1.80
2023-01-19T17:00:00.804Z,1.80
2023-01-19T17:02:27.636Z,1.76
2023-01-19T17:04:54.160Z,1.74
2023-01-19T17:07:20.672Z,1.66
2023-01-19T17:09:47.298Z,1.47
2023-01-19T17:12:15.128Z,1.70
2023-01-19T17:14:41.614Z,1.68
2023-01-19T17:17:08.205Z,1.69
2023-01-19T17:19:35.149Z,1.69
2023-01-19T17:22:01.698Z,1.67
2023-01-19T17:24:28.311Z,1.67
2023-01-19T17:26:54.878Z,1.57
2023-01-19T17:29:22.755Z,1.71
2023-01-19T17:31:54.049Z,1.70
2023-01-19T17:34:22.520Z,1.68
2023-01-19T17:36:50.295Z,1.66
2023-01-19T17:39:16.855Z,1.68
2023-01-19T17:41:43.387Z,1.69
2023-01-19T17:44:10.434Z,1.66
2023-01-19T17:46:38.871Z,1.63
2023-01-19T17:49:06.939Z,1.63
2023-01-19T17:51:34.087Z,1.49
2023-01-19T17:54:00.989Z,1.66
2023-01-19T17:56:30.072Z,1.62
2023-01-19T17:58:57.620Z,1.48
2023-01-19T18:01:25.662Z,1.56
2023-01-19T18:03:54.116Z,1.59
2023-01-19T18:06:21.112Z,1.59
2023-01-19T18:08:48.856Z,1.62
2023-01-19T18:11:17.824Z,1.62
2023-01-19T18:13:45.905Z,1.60
2023-01-19T18:16:16.230Z,1.58
2023-01-19T18:18:43.211Z,1.56
2023-01-19T18:21:13.014Z,1.58
2023-01-19T18:23:40.352Z,1.55
2023-01-19T18:26:08.721Z,1.54
2023-01-19T18:28:35.502Z,1.49
2023-01-19T18:31:06.184Z,1.48
2023-01-19T18:33:32.873Z,1.48
2023-01-19T18:35:59.662Z,1.41
2023-01-19T18:38:27.879Z,1.36
2023-01-19T18:41:01.776Z,1.41
2023-01-19T18:43:28.667Z,1.38
2023-01-19T18:45:55.352Z,1.34
2023-01-19T18:48:22.041Z,1.31
2023-01-19T18:50:48.567Z,1.27
2023-01-19T18:53:15.180Z,1.23
2023-01-19T18:55:52.028Z,1.20
2023-01-19T18:58:18.978Z,1.14
2023-01-19T19:00:45.584Z,1.09
2023-01-19T19:03:12.285Z,1.03
2023-01-19T19:05:39.493Z,0.97
2023-01-19T19:08:06.543Z,0.92
2023-01-19T19:10:33.174Z,0.88
2023-01-19T19:13:01.616Z,0.70
2023-01-19T19:15:28.164Z,0.72
2023-01-19T19:17:55.030Z,0.69
2023-01-19T19:20:21.636Z,0.64
2023-01-19T19:22:48.280Z,0.64
2023-01-19T19:25:15.052Z,0.62
2023-01-19T19:27:41.673Z,0.59
2023-01-19T19:30:11.832Z,0.60
2023-01-19T19:32:38.844Z,0.62
2023-01-19T19:35:06.148Z,0.62
2023-01-19T19:37:32.912Z,0.63
2023-01-19T19:39:59.423Z,0.64
2023-01-19T19:42:25.948Z,0.65
2023-01-19T19:44:52.447Z,0.67
2023-01-19T19:47:20.433Z,0.70
2023-01-19T19:49:47.156Z,0.70
2023-01-19T19:52:13.728Z,0.76
2023-01-19T19:54:40.260Z,0.64
2023-01-19T19:57:06.847Z,0.75
2023-01-19T19:59:33.364Z,0.74
2023-01-19T20:01:59.951Z,0.74
2023-01-19T20:04:27.938Z,0.72
2023-01-19T20:06:54.543Z,0.73
2023-01-19T20:09:21.048Z,0.69
2023-01-19T20:11:47.621Z,0.70
2023-01-19T20:14:15.233Z,0.72
2023-01-19T20:16:42.435Z,0.74
2023-01-19T20:19:09.477Z,0.70
2023-01-19T20:21:39.495Z,0.69
2023-01-19T20:24:08.347Z,0.62
2023-01-19T20:26:39.354Z,0.67
2023-01-19T20:29:06.218Z,0.65
2023-01-19T20:31:35.518Z,0.66
2023-01-19T20:34:04.716Z,0.67
2023-01-19T20:36:31.763Z,0.67
2023-01-19T20:38:59.834Z,0.68
2023-01-19T20:41:26.776Z,0.68
2023-01-19T20:43:53.541Z,0.70
2023-01-19T20:46:20.086Z,0.69
2023-01-19T20:48:46.667Z,0.68
2023-01-19T20:51:13.618Z,0.62
2023-01-19T20:53:41.438Z,0.80
2023-01-19T20:56:11.900Z,0.79
2023-01-19T20:58:38.958Z,0.68
2023-01-19T21:01:12.894Z,0.80
2023-01-19T21:03:40.352Z,0.72
2023-01-19T21:06:07.965Z,0.86
2023-01-19T21:08:35.007Z,0.84
2023-01-19T21:11:01.849Z,0.87
2023-01-19T21:13:29.814Z,0.74
2023-01-19T21:15:56.378Z,0.91
2023-01-19T21:18:22.989Z,0.91
2023-01-19T21:20:49.788Z,0.94
2023-01-19T21:23:16.610Z,0.97
2023-01-19T21:25:48.598Z,0.95
2023-01-19T21:28:15.032Z,0.92
2023-01-19T21:30:42.923Z,0.92
2023-01-19T21:33:09.700Z,0.91
2023-01-19T21:35:36.623Z,0.90
2023-01-19T21:38:03.245Z,0.92
2023-01-19T21:40:29.772Z,0.82
2023-01-19T21:42:56.368Z,0.91
2023-01-19T21:45:23.403Z,0.91
2023-01-19T21:47:51.414Z,0.93
2023-01-19T21:50:18.138Z,0.98
2023-01-19T21:52:44.841Z,0.84
2023-01-19T21:55:11.646Z,0.97
2023-01-19T21:57:38.432Z,0.54
2023-01-19T22:00:06.459Z,0.76
2023-01-19T22:02:38.821Z,0.93
2023-01-19T22:05:08.104Z,0.91
2023-01-19T22:07:34.656Z,0.90
2023-01-19T22:10:01.348Z,0.91
2023-01-19T22:12:28.152Z,0.91
2023-01-19T22:14:54.764Z,0.90
2023-01-19T22:17:21.283Z,0.91
2023-01-19T22:19:48.440Z,0.91
2023-01-19T22:22:16.356Z,0.91
2023-01-19T22:24:42.942Z,0.92
2023-01-19T22:27:09.464Z,0.92
2023-01-19T22:29:36.103Z,0.90
2023-01-19T22:32:02.666Z,0.92
2023-01-19T22:34:29.495Z,0.93
2023-01-19T22:36:56.000Z,0.92
2023-01-19T22:39:24.071Z,0.95
2023-01-19T22:41:50.748Z,0.88
2023-01-19T22:44:19.289Z,0.93
2023-01-19T22:46:45.845Z,0.93
2023-01-19T22:49:14.276Z,0.96
2023-01-19T22:51:41.810Z,0.89
2023-01-19T22:54:08.854Z,0.97
2023-01-19T22:56:38.996Z,1.00
2023-01-19T22:59:06.695Z,1.02
2023-01-19T23:01:35.825Z,1.03
2023-01-19T23:04:03.257Z,1.02
2023-01-19T23:06:31.653Z,1.03
2023-01-19T23:09:00.168Z,1.04
2023-01-19T23:11:28.420Z,0.96
2023-01-19T23:13:57.597Z,1.04
2023-01-19T23:16:24.209Z,1.03
2023-01-19T23:18:53.052Z,0.96
2023-01-19T23:21:21.229Z,1.06
2023-01-19T23:23:47.915Z,1.06
2023-01-19T23:26:16.899Z,1.06
2023-01-19T23:28:44.450Z,1.08
2023-01-19T23:31:16.963Z,1.00
2023-01-19T23:33:44.341Z,1.12
2023-01-19T23:36:11.790Z,1.14
2023-01-19T23:38:38.796Z,1.15
2023-01-19T23:41:05.717Z,1.10
2023-01-19T23:43:32.405Z,1.14
2023-01-19T23:46:02.490Z,1.15
2023-01-19T23:48:30.544Z,1.12
2023-01-19T23:50:57.079Z,1.12
2023-01-19T23:53:23.738Z,1.11
2023-01-19T23:55:50.257Z,1.11
2023-01-19T23:58:16.841Z,1.10
